• Join FlightAware (Why Join?)
  • Login
  • US Flag 
10:53AM EDT


 

Airport Tracker/Info


-or-


 

Live Flight TrackerFlight Track Log ✈ ASQ4283 ✈ 30-Jun-2013 ✈ KALB - KORD

Flight Track Log - Related Links

Times and Time Zones

All times are in EDT time to prevent confusion due to time zone crossing. See the ASQ4283 flight status page for this flight to view local times or setup timezone preferences in your user account.

Time Position Orientation Groundspeed Altitude Reporting Facility
EDT Latitude Longitude Course Direction KTS MPH feet Rate Location/Type
09:07AM 42.7214 -73.8078 283° West 167 192 1,400  Level Boston Center
09:07AM 42.7006 -73.8131 191° South 173 199 2,500 1,800 Climbing Boston Center
09:08AM 42.7228 -73.8786 295° West 247 284 4,200 1,680 Climbing Boston Center
09:09AM 42.7786 -73.9053 341° North 270 311 5,600 1,980 Climbing Boston Center
09:10AM 42.8511 -73.9439 339° North 284 327 7,800 2,100 Climbing Boston Center
09:11AM 42.8447 -74.4015 283° West  Level FlightAware Approximate
09:11AM 42.9214 -73.9767 341° North 284 327 9,900  Level Boston Center
09:12AM 42.8651 -74.5238 283° West  Level FlightAware Approximate
09:12AM 43.0003 -74.0128 341° North 284 327 12,100  Level Boston Center
09:13AM 43.0683 -74.0572 334° Northwest 284 327 13,500 900 Climbing Boston Center
09:14AM 43.0750 -74.1739 275° West 262 302 14,000 720 Climbing Boston Center
09:15AM 43.0794 -74.2822 273° West 310 357 15,000 1,200 Climbing Boston Center
09:16AM 43.0878 -74.4161 275° West 327 376 16,400 1,200 Climbing Boston Center
09:17AM 43.0919 -74.5269 273° West 332 382 17,400 1,080 Climbing Boston Center
09:18AM 43.0997 -74.6667 274° West 332 382 18,600 960 Climbing Boston Center
09:19AM 43.1058 -74.7806 274° West 332 382 19,400 900 Climbing Boston Center
09:20AM 43.1094 -74.9117 272° West 337 388 20,500 1,020 Climbing Boston Center
09:21AM 43.1147 -75.0428 273° West 344 396 21,500 900 Climbing Boston Center
09:22AM 43.1200 -75.1739 273° West 349 402 22,400 900 Climbing Boston Center
09:23AM 43.1269 -75.3106 274° West 349 402 23,300 720 Climbing Boston Center
09:24AM 43.1319 -75.4475 273° West 354 407 23,900 300 Climbing Boston Center
09:25AM 43.1406 -75.5903 275° West 367 422 24,000  Climbing Boston Center
09:26AM 43.1447 -75.7383 272° West 386 444 24,000  Level Boston Center
09:28AM 43.1333 -75.9500 266° West 400 460 24,000  Level Toronto Center
09:29AM 43.1500 -76.1167 278° West 410 472 24,000  Level Toronto Center
09:30AM 43.1500 -76.2667 270° West 410 472 24,000  Level Toronto Center
09:31AM 43.1500 -76.4333 270° West 410 472 24,000  Level Toronto Center
09:32AM 43.1500 -76.6000 270° West 400 460 24,000  Level Toronto Center
09:33AM 43.1500 -76.7333 270° West 400 460 24,000  Level Toronto Center
09:34AM 43.1500 -76.8833 270° West 390 449 24,000  Level Toronto Center
09:35AM 43.1500 -77.0333 270° West 390 449 24,000  Level Toronto Center
09:36AM 43.1333 -77.1833 261° West 400 460 24,000  Level Toronto Center
09:37AM 43.1333 -77.3333 270° West 400 460 24,000  Level Toronto Center
09:38AM 43.1500 -77.5000 278° West 410 472 24,000  Level Toronto Center
09:39AM 43.1500 -77.6500 270° West 410 472 24,000  Level Toronto Center
09:40AM 43.1333 -77.8000 261° West 410 472 24,000  Level Toronto Center
09:41AM 43.1333 -77.9667 270° West 410 472 24,000  Level Toronto Center
09:42AM 43.1333 -78.1333 270° West 420 483 24,000  Level Toronto Center
09:43AM 43.1333 -78.2833 270° West 420 483 24,000  Level Toronto Center
09:44AM 43.1167 -78.4500 262° West 420 483 24,000  Level Toronto Center
09:45AM 43.1333 -78.5833 280° West 420 483 24,000  Level Toronto Center
09:46AM 43.1167 -78.7667 263° West 420 483 24,000  Level Toronto Center
09:47AM 43.1167 -78.9333 270° West 420 483 24,000  Level Toronto Center
09:48AM 43.1167 -79.0833 270° West 420 483 24,000  Level Toronto Center
09:49AM 43.1000 -79.2167 260° West 420 483 24,000  Level Toronto Center
09:50AM 43.1000 -79.4000 270° West 420 483 24,000  Level Toronto Center
09:51AM 43.1000 -79.5500 270° West 420 483 24,000  Level Toronto Center
09:52AM 43.0833 -79.7167 262° West 420 483 24,000  Level Toronto Center
09:53AM 43.0833 -79.8833 270° West 420 483 24,000  Level Toronto Center
09:54AM 43.0833 -80.0167 270° West 420 483 24,000  Level Toronto Center
09:55AM 43.0667 -80.2000 263° West 430 495 24,000  Level Toronto Center
09:56AM 43.0667 -80.3667 270° West 430 495 24,000  Level Toronto Center
09:57AM 43.0667 -80.5167 270° West 440 506 24,000  Level Toronto Center
09:58AM 43.0500 -80.7000 263° West 440 506 24,000  Level Toronto Center
09:59AM 43.0333 -80.8667 262° West 440 506 24,000  Level Toronto Center
10:00AM 43.0167 -81.0500 263° West 450 518 24,000  Level Toronto Center
10:01AM 43.0167 -81.2000 270° West 450 518 24,000  Level Toronto Center
10:02AM 43.0167 -81.3667 270° West 450 518 24,000  Level Toronto Center
10:03AM 43.0167 -81.5500 270° West 450 518 24,000  Level Toronto Center
10:04AM 43.0167 -81.7000 270° West 450 518 24,000  Level Toronto Center
10:05AM 43.0167 -81.8833 270° West 450 518 24,000  Level Toronto Center
10:06AM 43.0000 -82.0500 262° West 450 518 24,000  Level Toronto Center
10:07AM 43.0000 -82.2333 270° West 450 518 24,000  Level Toronto Center
10:08AM 43.0000 -82.3833 270° West 450 518 24,000  Level Toronto Center
10:09AM 43.0000 -82.5667 270° West 460 529 24,000  Level Toronto Center
10:10AM 42.9969 -82.7094 268° West 461 531 24,000  Level Cleveland Center
10:11AM 42.9875 -82.8850 266° West 461 531 24,000  Level Cleveland Center
10:12AM 42.9778 -83.0550 266° West 461 531 24,000  Level Cleveland Center
10:13AM 42.9675 -83.2247 265° West 461 531 24,000  Level Cleveland Center
10:14AM 42.9575 -83.3944 265° West 461 531 24,000  Level Cleveland Center
10:15AM 42.9489 -83.5700 266° West 461 531 24,000  Level Cleveland Center
10:16AM 42.9381 -83.7369 265° West 461 531 24,000  Level Cleveland Center
10:17AM 42.9264 -83.9264 265° West 461 531 24,000  Level Cleveland Center
10:18AM 42.9153 -84.0958 265° West 461 531 24,000  Level Cleveland Center
10:19AM 42.9058 -84.2656 266° West 461 531 24,000  Level Cleveland Center
10:20AM 42.8967 -84.4153 265° West 456 525 24,000  Level Cleveland Center
10:21AM 42.8797 -84.6203 264° West 453 521 24,000  Level Chicago Center
10:22AM 42.8628 -84.7897 262° West 453 521 24,000  Level Chicago Center
10:23AM 42.8414 -84.9950 262° West 456 525 24,000  Level Chicago Center
10:24AM 42.8233 -85.1644 262° West 453 521 24,000  Level Chicago Center
10:25AM 42.8050 -85.3336 262° West 452 520 24,000  Level Chicago Center
10:26AM 42.7847 -85.5056 261° West 457 526 24,000  Level Chicago Center
10:27AM 42.7558 -85.6750 257° West 457 526 24,000  Level Chicago Center
10:28AM 42.7244 -85.8447 256° West 458 527 24,000 -480 Level Chicago Center
10:29AM 42.6933 -86.0125 256° West 456 525 23,100 -1,380 Descending Chicago Center
10:30AM 42.6572 -86.2100 256° West 449 517 21,200 -1,500 Descending Chicago Center
10:31AM 42.6272 -86.3656 255° West 427 491 20,000 -720 Descending Chicago Center
10:32AM 42.5983 -86.5231 256° West 428 493 19,800 -600 Descending Chicago Center
10:33AM 42.5683 -86.6847 256° West 426 490 18,800 -1,260 Descending Chicago Center
10:34AM 42.5336 -86.8325 252° West 420 483 17,200 -1,920 Descending Chicago Center
10:35AM 42.4936 -86.9744 249° West 419 482 14,900 -2,280 Descending Chicago Center
10:36AM 42.4539 -87.1125 249° West 402 463 12,600 -2,100 Descending Chicago Center
10:37AM 42.4106 -87.2708 250° West 379 436 10,600 -1,320 Descending Chicago Center
10:38AM 42.3744 -87.4053 250° West 378 435 10,000 -300 Descending Chicago Center
10:39AM 42.3347 -87.5347 247° West 377 434 10,000  Level Chicago Center
10:40AM 42.2547 -87.6242 220° Southwest 376 433 10,000  Level Chicago Center
10:41AM 42.1719 -87.7125 218° Southwest 380 437 10,000 -360 Level Chicago Center
10:43AM 42.1067 -87.7861 220° Southwest 313 360 9,300 -1,260 Descending Chicago Center
10:44AM 42.0925 -87.9128 261° West 292 336 7,500 -1,200 Descending Chicago Center
10:44AM 42.1000 -88.0167 276° West 297 342 7,000 -540 Descending Chicago TRACON
10:46AM 42.1000 -88.1333 270° West 281 323 6,500 -720 Descending Chicago TRACON
10:47AM 42.0500 -88.2000 225° Southwest 255 293 5,600 -1,440 Descending Chicago TRACON
10:47AM 42.0000 -88.1667 154° Southeast 231 266 3,800 -2,040 Descending Chicago TRACON